createdAt,value
2023-02-19T00:01:36.243Z,84.30
2023-02-19T00:04:07.368Z,81.40
2023-02-19T00:06:35.342Z,75.10
2023-02-19T00:09:03.018Z,80.20
2023-02-19T00:11:32.715Z,86.80
2023-02-19T00:14:00.969Z,80.40
2023-02-19T00:16:36.750Z,92.70
2023-02-19T00:19:07.621Z,88.90
2023-02-19T00:21:34.624Z,85.90
2023-02-19T00:26:31.112Z,88.90
2023-02-19T00:28:59.265Z,81.70
2023-02-19T00:31:27.629Z,79.10
2023-02-19T00:33:57.685Z,87.40
2023-02-19T00:36:26.308Z,92.20
2023-02-19T00:38:53.335Z,70.40
2023-02-19T00:43:49.580Z,80.20
2023-02-19T00:46:19.158Z,84.80
2023-02-19T00:48:46.959Z,83.00
2023-02-19T00:51:14.855Z,82.50
2023-02-19T00:53:42.662Z,83.10
2023-02-19T00:56:10.006Z,80.80
2023-02-19T00:58:37.569Z,77.50
2023-02-19T01:01:06.117Z,91.30
2023-02-19T01:03:34.333Z,83.60
2023-02-19T01:06:02.433Z,74.40
2023-02-19T01:08:33.044Z,81.90
2023-02-19T01:11:04.542Z,88.40
2023-02-19T01:13:32.300Z,84.20
2023-02-19T01:16:05.946Z,92.40
2023-02-19T01:18:33.622Z,88.00
2023-02-19T01:21:08.686Z,89.00
2023-02-19T01:23:40.199Z,95.60
2023-02-19T01:26:12.794Z,109.20
2023-02-19T01:28:40.498Z,130.50
2023-02-19T01:31:10.565Z,103.50
2023-02-19T01:33:37.681Z,81.90
2023-02-19T01:36:06.398Z,90.70
2023-02-19T01:38:33.353Z,107.80
2023-02-19T01:41:02.861Z,107.80
2023-02-19T01:43:32.840Z,115.30
2023-02-19T01:45:59.991Z,112.00
2023-02-19T01:48:37.711Z,102.40
2023-02-19T01:51:06.592Z,114.60
2023-02-19T01:53:38.745Z,107.70
2023-02-19T01:56:06.919Z,119.40
2023-02-19T01:58:39.156Z,110.60
2023-02-19T02:01:08.100Z,103.70
2023-02-19T02:03:37.585Z,116.00
2023-02-19T02:06:21.609Z,124.30
2023-02-19T02:09:13.565Z,114.10
2023-02-19T02:11:47.993Z,112.30
2023-02-19T02:14:18.066Z,113.70
2023-02-19T02:17:03.928Z,101.40
2023-02-19T02:20:05.099Z,88.90
2023-02-19T02:22:41.803Z,83.30
2023-02-19T02:28:06.326Z,125.40
2023-02-19T02:30:42.276Z,106.60
2023-02-19T02:33:27.978Z,105.50
2023-02-19T02:36:24.032Z,102.40
2023-02-19T02:38:53.502Z,72.50
2023-02-19T02:41:21.626Z,46.90
2023-02-19T02:43:48.779Z,53.00
2023-02-19T02:49:03.299Z,45.50
2023-02-19T02:51:38.183Z,38.80
2023-02-19T02:54:42.046Z,51.90
2023-02-19T02:57:15.543Z,48.40
2023-02-19T02:59:48.621Z,46.20
2023-02-19T03:02:22.690Z,45.30
2023-02-19T03:05:14.348Z,44.30
2023-02-19T03:08:10.890Z,41.90
2023-02-19T03:10:46.253Z,40.40
2023-02-19T03:13:51.911Z,47.10
2023-02-19T03:16:49.027Z,45.10
2023-02-19T03:19:19.920Z,46.10
2023-02-19T03:22:10.340Z,48.90
2023-02-19T03:25:09.111Z,45.70
2023-02-19T03:27:39.194Z,41.20
2023-02-19T03:30:14.129Z,55.10
2023-02-19T03:33:08.157Z,44.80
2023-02-19T03:35:44.501Z,44.20
2023-02-19T03:38:23.885Z,46.70
2023-02-19T03:41:13.333Z,51.20
2023-02-19T03:43:52.112Z,50.20
2023-02-19T03:46:41.588Z,49.90
2023-02-19T03:49:43.689Z,50.50
2023-02-19T03:52:21.139Z,40.80
2023-02-19T03:55:15.874Z,49.20
2023-02-19T03:57:46.048Z,47.90
2023-02-19T04:00:24.998Z,48.20
2023-02-19T04:03:00.237Z,49.50
2023-02-19T04:05:35.492Z,40.10
2023-02-19T04:08:16.576Z,47.10
2023-02-19T04:10:49.210Z,49.30
2023-02-19T04:13:27.477Z,46.40
2023-02-19T04:16:00.297Z,53.80
2023-02-19T04:18:33.869Z,56.70
2023-02-19T04:21:02.833Z,60.20
2023-02-19T04:23:37.103Z,41.00
2023-02-19T04:26:06.049Z,52.60
2023-02-19T04:28:33.676Z,47.70
2023-02-19T04:31:01.669Z,51.10
2023-02-19T04:33:28.472Z,55.50
2023-02-19T04:35:55.476Z,50.10
2023-02-19T04:40:50.883Z,54.00
2023-02-19T04:43:18.596Z,51.20
2023-02-19T04:45:45.404Z,59.10
2023-02-19T04:48:12.275Z,44.90
2023-02-19T04:50:40.380Z,53.10
2023-02-19T04:53:07.469Z,43.10
2023-02-19T04:55:38.783Z,49.80
2023-02-19T04:58:05.870Z,46.90
2023-02-19T05:03:00.687Z,59.70
2023-02-19T05:05:27.682Z,54.60
2023-02-19T05:07:54.503Z,48.60
2023-02-19T05:10:21.524Z,64.40
2023-02-19T05:12:48.654Z,50.00
2023-02-19T05:15:16.026Z,47.40
2023-02-19T05:17:43.063Z,55.80
2023-02-19T05:22:36.995Z,57.90
2023-02-19T05:25:04.727Z,54.40
2023-02-19T05:27:32.319Z,55.00
2023-02-19T05:30:01.256Z,53.00
2023-02-19T05:32:28.407Z,49.10
2023-02-19T05:37:22.372Z,52.00
2023-02-19T05:39:49.687Z,57.90
2023-02-19T05:42:16.842Z,61.20
2023-02-19T05:44:43.882Z,52.70
2023-02-19T05:49:37.855Z,59.20
2023-02-19T05:52:05.093Z,49.60
2023-02-19T05:54:32.257Z,54.00
2023-02-19T05:56:59.544Z,65.60
2023-02-19T05:59:27.797Z,57.40
2023-02-19T06:04:22.884Z,56.70
2023-02-19T06:06:50.752Z,61.30
2023-02-19T06:09:18.045Z,51.10
2023-02-19T06:14:13.876Z,55.80
2023-02-19T06:16:41.196Z,58.60
2023-02-19T06:19:08.105Z,55.40
2023-02-19T06:24:11.127Z,50.40
2023-02-19T06:26:38.112Z,56.60
2023-02-19T06:29:05.240Z,60.10
2023-02-19T06:31:32.106Z,58.30
2023-02-19T06:36:32.553Z,39.80
2023-02-19T06:39:00.481Z,42.80
2023-02-19T06:41:27.296Z,51.40
2023-02-19T06:43:54.530Z,59.80
2023-02-19T06:46:21.430Z,44.30
2023-02-19T06:48:48.858Z,47.30
2023-02-19T06:51:18.929Z,46.50
2023-02-19T06:53:46.501Z,31.20
2023-02-19T06:56:31.937Z,46.00
2023-02-19T06:59:02.011Z,41.80
2023-02-19T07:01:30.765Z,45.80
2023-02-19T07:03:58.206Z,43.10
2023-02-19T07:06:25.905Z,48.30
2023-02-19T07:08:54.973Z,35.20
2023-02-19T07:11:22.754Z,33.70
2023-02-19T07:13:56.616Z,35.90
2023-02-19T07:16:24.712Z,49.70
2023-02-19T07:18:52.035Z,43.90
2023-02-19T07:21:19.146Z,44.20
2023-02-19T07:23:46.128Z,43.50
2023-02-19T07:26:15.074Z,32.60
2023-02-19T07:28:46.697Z,35.20
2023-02-19T07:31:15.868Z,37.70
2023-02-19T07:33:44.054Z,38.70
2023-02-19T07:36:12.224Z,45.20
2023-02-19T07:38:39.409Z,44.00
2023-02-19T07:41:07.060Z,41.10
2023-02-19T07:43:36.406Z,44.70
2023-02-19T07:46:05.297Z,42.00
2023-02-19T07:48:34.689Z,45.80
2023-02-19T07:51:03.589Z,47.90
2023-02-19T07:53:32.951Z,36.10
2023-02-19T07:56:01.831Z,42.90
2023-02-19T07:58:31.022Z,31.80
2023-02-19T08:01:06.638Z,43.70
2023-02-19T08:03:34.642Z,42.20
2023-02-19T08:06:01.853Z,37.80
2023-02-19T08:08:29.449Z,39.20
2023-02-19T08:11:18.406Z,32.10
2023-02-19T08:13:48.794Z,35.30
2023-02-19T08:16:29.567Z,41.90
2023-02-19T08:19:05.813Z,40.10
2023-02-19T08:21:34.495Z,42.90
2023-02-19T08:24:01.959Z,40.60
2023-02-19T08:28:55.627Z,38.90
2023-02-19T08:33:49.383Z,35.00
2023-02-19T08:36:16.432Z,33.10
2023-02-19T08:38:45.610Z,37.00
2023-02-19T08:43:42.058Z,47.20
2023-02-19T08:46:12.403Z,41.50
2023-02-19T08:48:39.806Z,40.20
2023-02-19T08:51:10.846Z,47.70
2023-02-19T08:53:39.854Z,51.60
2023-02-19T08:56:13.148Z,51.60
2023-02-19T08:58:40.441Z,49.70
2023-02-19T09:01:13.095Z,57.40
2023-02-19T09:03:41.028Z,85.40
2023-02-19T09:06:13.954Z,58.90
2023-02-19T09:08:41.325Z,40.10
2023-02-19T09:11:08.155Z,49.60
2023-02-19T09:13:35.192Z,54.50
2023-02-19T09:18:30.520Z,54.00
2023-02-19T09:21:03.986Z,55.00
2023-02-19T09:23:36.495Z,49.60
2023-02-19T09:26:08.089Z,48.40
2023-02-19T09:28:35.867Z,47.00
2023-02-19T09:31:05.483Z,58.80
2023-02-19T09:33:32.901Z,41.60
2023-02-19T09:36:01.410Z,48.00
2023-02-19T09:38:29.769Z,49.10
2023-02-19T09:40:58.848Z,47.80
2023-02-19T09:43:29.499Z,49.60
2023-02-19T09:46:11.836Z,59.60
2023-02-19T09:48:38.893Z,53.50
2023-02-19T09:51:10.269Z,57.40
2023-02-19T09:53:43.966Z,58.50
2023-02-19T09:56:11.183Z,52.20
2023-02-19T09:58:48.157Z,51.40
2023-02-19T10:01:15.879Z,60.80
2023-02-19T10:03:46.663Z,59.70
2023-02-19T10:06:23.187Z,61.50
2023-02-19T10:08:54.055Z,61.20
2023-02-19T10:11:25.184Z,101.50
2023-02-19T10:14:08.741Z,63.70
2023-02-19T10:16:43.501Z,59.60
2023-02-19T10:19:12.756Z,67.20
2023-02-19T10:21:40.841Z,63.70
2023-02-19T10:24:14.609Z,92.40
2023-02-19T10:26:41.812Z,72.40
2023-02-19T10:29:09.995Z,84.50
2023-02-19T10:31:37.413Z,132.90
2023-02-19T10:34:18.249Z,168.10
2023-02-19T10:36:49.716Z,161.30
2023-02-19T10:39:41.681Z,126.50
2023-02-19T10:42:23.352Z,88.30
2023-02-19T10:44:58.631Z,73.30
2023-02-19T10:47:29.493Z,70.50
2023-02-19T10:50:00.810Z,79.60
2023-02-19T10:52:33.505Z,83.50
2023-02-19T10:55:24.345Z,69.10
2023-02-19T10:57:51.729Z,81.40
2023-02-19T11:00:28.389Z,94.00
2023-02-19T11:03:19.303Z,89.40
2023-02-19T11:06:01.433Z,70.00
2023-02-19T11:08:56.640Z,82.10
2023-02-19T11:11:37.282Z,77.20
2023-02-19T11:14:17.072Z,78.70
2023-02-19T11:16:52.925Z,74.10
2023-02-19T11:19:40.912Z,101.60
2023-02-19T11:22:30.296Z,80.20
2023-02-19T11:25:14.465Z,71.70
2023-02-19T11:28:06.455Z,84.10
2023-02-19T11:30:40.115Z,81.60
2023-02-19T11:33:29.643Z,83.30
2023-02-19T11:36:29.469Z,83.80
2023-02-19T11:39:00.866Z,73.80
2023-02-19T11:41:36.573Z,84.30
2023-02-19T11:44:32.495Z,79.00
2023-02-19T11:47:21.190Z,69.90
2023-02-19T11:50:02.505Z,81.60
2023-02-19T11:53:09.073Z,71.80
2023-02-19T11:55:51.434Z,78.00
2023-02-19T11:58:47.329Z,78.70
2023-02-19T12:01:48.514Z,79.00
2023-02-19T12:04:43.085Z,90.10
2023-02-19T12:07:38.503Z,97.00
2023-02-19T12:10:08.512Z,123.10
2023-02-19T12:12:42.180Z,113.80
2023-02-19T12:15:43.564Z,96.80
2023-02-19T12:18:39.965Z,106.50
2023-02-19T12:21:17.374Z,107.10
2023-02-19T12:23:56.122Z,95.50
2023-02-19T12:26:59.171Z,116.80
2023-02-19T12:29:36.474Z,114.00
2023-02-19T12:32:03.655Z,105.30
2023-02-19T12:34:55.034Z,91.30
2023-02-19T12:37:39.323Z,112.40
2023-02-19T12:40:45.598Z,96.30
2023-02-19T12:43:23.271Z,89.60
2023-02-19T12:46:18.497Z,94.90
2023-02-19T12:48:52.956Z,90.60
2023-02-19T12:51:32.207Z,99.00
2023-02-19T12:56:34.066Z,100.90
2023-02-19T12:59:39.540Z,102.40
2023-02-19T13:02:09.991Z,116.70
2023-02-19T13:04:55.955Z,107.30
2023-02-19T13:07:35.780Z,96.20
2023-02-19T13:10:17.812Z,113.50
2023-02-19T13:12:48.539Z,103.60
2023-02-19T13:15:21.752Z,102.50
2023-02-19T13:17:52.405Z,105.50
2023-02-19T13:20:35.258Z,100.50
2023-02-19T13:23:36.925Z,112.20
2023-02-19T13:26:08.019Z,114.20
2023-02-19T13:29:15.965Z,117.50
2023-02-19T13:32:05.259Z,105.60
2023-02-19T13:34:56.146Z,126.40
2023-02-19T13:37:27.466Z,116.00
2023-02-19T13:40:06.088Z,112.00
2023-02-19T13:42:51.075Z,172.40
2023-02-19T13:45:38.021Z,140.30
2023-02-19T13:48:23.591Z,123.60
2023-02-19T13:51:36.527Z,133.20
2023-02-19T13:54:40.126Z,130.90
2023-02-19T13:57:24.140Z,137.00
2023-02-19T13:59:57.428Z,132.60
2023-02-19T14:02:39.544Z,127.40
2023-02-19T14:05:11.081Z,136.40
2023-02-19T14:07:55.447Z,134.10
2023-02-19T14:11:01.978Z,131.80
2023-02-19T14:16:37.350Z,115.40
2023-02-19T14:19:14.387Z,140.10
2023-02-19T14:21:46.049Z,166.70
2023-02-19T14:24:20.079Z,202.60
2023-02-19T14:26:51.136Z,183.40
2023-02-19T14:29:18.942Z,209.90
2023-02-19T14:31:47.180Z,202.40
2023-02-19T14:34:25.272Z,240.00
2023-02-19T14:37:01.279Z,266.30
2023-02-19T14:39:33.374Z,189.00
2023-02-19T14:42:06.392Z,180.70
2023-02-19T14:44:47.756Z,183.50
2023-02-19T14:47:21.274Z,125.50
2023-02-19T14:50:04.203Z,131.90
2023-02-19T14:52:43.773Z,152.80
2023-02-19T14:55:34.833Z,141.60
2023-02-19T14:58:16.970Z,151.70
2023-02-19T15:00:44.483Z,143.00
2023-02-19T15:03:37.137Z,158.50
2023-02-19T15:06:12.189Z,144.60
2023-02-19T15:08:44.862Z,149.70
2023-02-19T15:11:18.779Z,157.00
2023-02-19T15:13:58.397Z,171.70
2023-02-19T15:16:30.581Z,201.50
2023-02-19T15:19:00.923Z,230.10
2023-02-19T15:21:33.586Z,230.80
2023-02-19T15:24:04.664Z,174.80
2023-02-19T15:26:41.357Z,165.70
2023-02-19T15:29:14.782Z,173.00
2023-02-19T15:31:56.954Z,159.50
2023-02-19T15:34:26.532Z,164.80
2023-02-19T15:37:00.548Z,159.40
2023-02-19T15:39:32.331Z,163.10
2023-02-19T15:42:03.672Z,161.00
2023-02-19T15:44:49.401Z,167.70
2023-02-19T15:47:20.916Z,156.80
2023-02-19T15:50:01.057Z,160.50
2023-02-19T15:52:44.570Z,168.30
2023-02-19T15:55:48.262Z,167.00
2023-02-19T15:58:39.832Z,166.10
2023-02-19T16:01:21.186Z,161.80
2023-02-19T16:03:48.978Z,152.00
2023-02-19T16:06:18.005Z,150.80
2023-02-19T16:09:01.568Z,145.10
2023-02-19T16:11:39.344Z,145.40
2023-02-19T16:14:38.537Z,140.30
2023-02-19T16:17:11.399Z,147.00
2023-02-19T16:19:41.918Z,157.90
2023-02-19T16:22:15.490Z,148.60
2023-02-19T16:24:48.748Z,166.00
2023-02-19T16:27:31.205Z,145.50
2023-02-19T16:30:02.600Z,169.40
2023-02-19T16:32:29.745Z,168.20
2023-02-19T16:34:56.974Z,168.10
2023-02-19T16:37:38.478Z,177.40
2023-02-19T16:40:08.693Z,186.60
2023-02-19T16:43:01.972Z,185.80
2023-02-19T16:45:29.401Z,178.90
2023-02-19T16:47:56.584Z,177.20
2023-02-19T16:50:26.399Z,187.10
2023-02-19T16:52:59.101Z,185.20
2023-02-19T16:55:27.955Z,182.50
2023-02-19T16:57:55.407Z,189.00
2023-02-19T17:00:27.807Z,179.90
2023-02-19T17:03:01.663Z,191.10
2023-02-19T17:05:32.047Z,189.50
2023-02-19T17:07:59.027Z,176.20
2023-02-19T17:12:55.210Z,200.30
2023-02-19T17:15:23.031Z,194.00
2023-02-19T17:17:52.378Z,183.40
2023-02-19T17:20:28.965Z,169.20
2023-02-19T17:22:56.414Z,176.00
2023-02-19T17:25:23.526Z,188.90
2023-02-19T17:27:50.565Z,188.30
2023-02-19T17:30:30.143Z,199.30
2023-02-19T17:32:58.597Z,196.20
2023-02-19T17:35:25.959Z,198.60
2023-02-19T17:37:53.585Z,199.20
2023-02-19T17:40:32.783Z,197.70
2023-02-19T17:43:02.389Z,244.80
2023-02-19T17:45:29.708Z,202.30
2023-02-19T17:47:57.741Z,212.30
2023-02-19T17:50:28.419Z,205.90
2023-02-19T17:52:56.581Z,208.50
2023-02-19T17:55:24.436Z,204.80
2023-02-19T17:57:55.821Z,203.30
2023-02-19T18:00:26.847Z,208.10
2023-02-19T18:02:54.193Z,210.90
2023-02-19T18:05:25.567Z,216.10
2023-02-19T18:07:56.383Z,208.70
2023-02-19T18:10:25.455Z,195.90
2023-02-19T18:12:52.420Z,140.50
2023-02-19T18:15:22.793Z,144.00
2023-02-19T18:17:50.085Z,175.80
2023-02-19T18:20:20.867Z,151.40
2023-02-19T18:22:52.197Z,121.60
2023-02-19T18:25:23.110Z,139.90
2023-02-19T18:27:51.242Z,125.10
2023-02-19T18:30:22.174Z,128.00
2023-02-19T18:32:51.336Z,126.50
2023-02-19T18:35:20.702Z,103.20
2023-02-19T18:37:55.929Z,104.50
2023-02-19T18:40:28.154Z,90.90
2023-02-19T18:42:55.459Z,90.10
2023-02-19T18:45:22.870Z,84.70
2023-02-19T18:47:50.519Z,72.80
2023-02-19T18:50:19.286Z,82.40
2023-02-19T18:52:48.674Z,75.90
2023-02-19T18:55:16.183Z,95.70
2023-02-19T18:57:43.934Z,74.70
2023-02-19T19:00:19.193Z,65.30
2023-02-19T19:02:49.721Z,64.90
2023-02-19T19:05:25.344Z,55.70
2023-02-19T19:07:58.681Z,56.60
2023-02-19T19:10:27.025Z,63.90
2023-02-19T19:12:54.617Z,57.40
2023-02-19T19:15:23.074Z,69.70
2023-02-19T19:17:51.200Z,110.80
2023-02-19T19:20:25.640Z,74.80
2023-02-19T19:22:55.892Z,67.70
2023-02-19T19:25:26.183Z,85.00
2023-02-19T19:27:58.846Z,86.60
2023-02-19T19:30:26.293Z,43.90
2023-02-19T19:32:54.075Z,80.70
2023-02-19T19:35:23.675Z,72.60
2023-02-19T19:37:51.019Z,64.40
2023-02-19T19:40:23.274Z,61.10
2023-02-19T19:42:52.881Z,49.10
2023-02-19T19:45:28.826Z,51.90
2023-02-19T19:47:56.426Z,46.70
2023-02-19T19:50:24.771Z,51.50
2023-02-19T19:52:53.483Z,33.90
2023-02-19T19:55:21.519Z,38.70
2023-02-19T19:57:49.801Z,35.90
2023-02-19T20:00:18.880Z,31.00
2023-02-19T20:02:46.473Z,18.60
2023-02-19T20:05:15.107Z,10.80
2023-02-19T20:07:42.895Z,17.30
2023-02-19T20:10:12.397Z,18.40
2023-02-19T20:12:40.231Z,14.50
2023-02-19T20:15:08.066Z,18.30
2023-02-19T20:17:35.383Z,12.80
2023-02-19T20:20:02.814Z,17.30
2023-02-19T20:22:29.949Z,14.30
2023-02-19T20:24:57.579Z,14.10
2023-02-19T20:27:24.804Z,9.60
2023-02-19T20:29:52.057Z,15.00
2023-02-19T20:32:19.566Z,18.50
2023-02-19T20:34:48.040Z,19.20
2023-02-19T20:37:15.400Z,17.00
2023-02-19T20:39:43.075Z,16.50
2023-02-19T20:42:10.497Z,22.40
2023-02-19T20:44:37.487Z,19.20
2023-02-19T20:47:04.670Z,19.90
2023-02-19T20:52:04.266Z,25.90
2023-02-19T20:54:33.447Z,22.60
2023-02-19T20:57:04.308Z,19.70
2023-02-19T20:59:38.093Z,21.40
2023-02-19T21:02:14.132Z,17.80
2023-02-19T21:04:41.148Z,25.30
2023-02-19T21:09:35.792Z,27.20
2023-02-19T21:12:02.942Z,24.50
2023-02-19T21:14:30.190Z,21.80
2023-02-19T21:16:57.238Z,32.20
2023-02-19T21:19:24.466Z,27.10
2023-02-19T21:24:18.625Z,23.70
2023-02-19T21:26:45.983Z,25.20
2023-02-19T21:29:18.453Z,21.80
2023-02-19T21:31:48.863Z,22.00
2023-02-19T21:34:20.128Z,30.10
2023-02-19T21:36:47.336Z,28.00
2023-02-19T21:39:17.976Z,23.80
2023-02-19T21:41:45.063Z,28.20
2023-02-19T21:46:40.333Z,34.40
2023-02-19T21:49:07.384Z,31.80
2023-02-19T21:51:37.975Z,33.90
2023-02-19T21:54:06.429Z,28.10
2023-02-19T21:56:36.399Z,35.20
2023-02-19T21:59:04.095Z,39.70
2023-02-19T22:01:37.968Z,29.00
2023-02-19T22:04:10.044Z,26.40
2023-02-19T22:06:38.998Z,40.50
2023-02-19T22:09:09.110Z,31.80
2023-02-19T22:11:36.315Z,38.80
2023-02-19T22:14:03.567Z,34.40
2023-02-19T22:16:30.887Z,43.90
2023-02-19T22:18:59.191Z,38.90
2023-02-19T22:21:29.964Z,51.40
2023-02-19T22:24:02.096Z,31.00
2023-02-19T22:26:36.033Z,40.50
2023-02-19T22:29:06.488Z,44.10
2023-02-19T22:31:34.285Z,51.10
2023-02-19T22:34:01.704Z,45.60
2023-02-19T22:36:31.076Z,48.00
2023-02-19T22:38:59.770Z,45.20
2023-02-19T22:41:26.982Z,44.00
2023-02-19T22:46:24.837Z,46.90
2023-02-19T22:48:51.999Z,48.80
2023-02-19T22:51:22.178Z,54.80
2023-02-19T22:53:54.804Z,55.10
2023-02-19T22:56:24.453Z,53.80
2023-02-19T22:58:52.315Z,51.20
2023-02-19T23:01:19.747Z,53.40
2023-02-19T23:03:48.085Z,55.50
2023-02-19T23:06:16.668Z,60.70
2023-02-19T23:08:44.009Z,56.40
2023-02-19T23:11:12.653Z,55.80
2023-02-19T23:13:42.730Z,52.00
2023-02-19T23:16:10.088Z,48.30
2023-02-19T23:18:37.375Z,60.10
2023-02-19T23:23:32.032Z,50.10
2023-02-19T23:25:58.980Z,57.70
2023-02-19T23:28:25.962Z,60.00
2023-02-19T23:30:53.188Z,57.80
2023-02-19T23:33:20.284Z,63.80
2023-02-19T23:35:49.559Z,62.90
2023-02-19T23:38:17.800Z,58.00
2023-02-19T23:40:45.012Z,62.80
2023-02-19T23:45:38.796Z,59.50
2023-02-19T23:50:32.721Z,57.00
2023-02-19T23:52:59.721Z,66.60
2023-02-19T23:55:26.874Z,65.10
2023-02-19T23:57:54.083Z,61.90
